Accueil
METAR-TAF:

METAR-TAF

Aéroports :

Custer County Airport

Custer, Dakota du Sud, États-Unis

latitude: 43-43-59N, longitude: 103-37-03W, altitude: 1707 m

Observation

Le bulletin a été fait il y a 1 heure et 22 minutes, à 14:53 UTC
Vent 7 kt de ouest
Température 0°C
Humidité 80%
Pression 1023 hPa
Visibilité: 16.1 km
Ciel clair

METAR: KCUT 141453Z AUTO 27007KT 10SM CLR 00/M03 A3020 RMK AO2 SLP254 I3000 T00001033 53005

Heure: 09:15 (16:15 UTC)


TAF: absent

Observations et prévisions météorologiques de plus de 4000 aéroports (messages METAR et TAF).

Les stations disponibles sont représentées par des disques jaunes et rouges sur la carte.

Passer la souris dessus pour voir le nom de la station.

Cliquer dessus pour voir les observations et prévisions météorologiques.

Pour changer de carte: cliquez sur les boutons verts avec une croix noire pour zoomer, sur le bouton vert avec un tiret pour effectuer un zoom arrière, ou sur les flèches vertes pour les cartes adjacentes.


METAR-TAF: